createdAt,value
2023-02-19T00:01:19.363Z,10.78
2023-02-19T00:03:52.403Z,10.72
2023-02-19T00:06:20.362Z,10.48
2023-02-19T00:08:46.868Z,10.80
2023-02-19T00:11:16.561Z,10.65
2023-02-19T00:13:45.507Z,10.94
2023-02-19T00:16:25.396Z,10.93
2023-02-19T00:18:52.955Z,10.67
2023-02-19T00:21:19.959Z,10.50
2023-02-19T00:23:52.277Z,10.90
2023-02-19T00:26:19.364Z,10.90
2023-02-19T00:28:46.822Z,10.83
2023-02-19T00:31:34.330Z,10.78
2023-02-19T00:34:03.819Z,10.83
2023-02-19T00:36:31.398Z,10.76
2023-02-19T00:38:57.814Z,10.62
2023-02-19T00:41:25.344Z,10.99
2023-02-19T00:44:00.320Z,10.57
2023-02-19T00:46:56.970Z,10.79
2023-02-19T00:49:23.500Z,10.64
2023-02-19T00:51:52.262Z,10.48
2023-02-19T00:54:19.138Z,10.38
2023-02-19T00:56:46.194Z,10.94
2023-02-19T00:59:12.590Z,11.03
2023-02-19T01:01:39.030Z,10.83
2023-02-19T01:04:06.667Z,10.91
2023-02-19T01:06:33.212Z,11.02
2023-02-19T01:08:59.624Z,10.65
2023-02-19T01:11:26.242Z,10.72
2023-02-19T01:13:52.946Z,10.60
2023-02-19T01:16:22.307Z,10.79
2023-02-19T01:18:49.025Z,11.22
2023-02-19T01:21:17.869Z,10.99
2023-02-19T01:23:44.890Z,11.18
2023-02-19T01:26:20.896Z,11.02
2023-02-19T01:28:47.934Z,11.02
2023-02-19T01:31:17.005Z,11.03
2023-02-19T01:33:48.559Z,11.12
2023-02-19T01:36:15.174Z,11.10
2023-02-19T01:38:42.459Z,10.97
2023-02-19T01:41:12.285Z,10.91
2023-02-19T01:44:12.582Z,10.95
2023-02-19T01:46:41.454Z,10.90
2023-02-19T01:49:14.761Z,10.98
2023-02-19T01:51:48.491Z,11.04
2023-02-19T01:54:17.882Z,11.14
2023-02-19T01:56:47.452Z,10.89
2023-02-19T01:59:14.756Z,11.12
2023-02-19T02:01:41.210Z,10.82
2023-02-19T02:04:09.891Z,10.66
2023-02-19T02:06:47.963Z,10.94
2023-02-19T02:09:14.652Z,10.81
2023-02-19T02:11:47.763Z,10.77
2023-02-19T02:14:14.965Z,10.81
2023-02-19T02:16:54.497Z,10.95
2023-02-19T02:19:31.153Z,10.89
2023-02-19T02:22:16.211Z,10.71
2023-02-19T02:25:01.518Z,10.83
2023-02-19T02:27:49.332Z,10.93
2023-02-19T02:30:39.964Z,10.94
2023-02-19T02:33:32.569Z,10.80
2023-02-19T02:36:13.960Z,10.82
2023-02-19T02:38:43.123Z,10.59
2023-02-19T02:41:10.461Z,10.52
2023-02-19T02:43:36.882Z,10.28
2023-02-19T02:46:03.282Z,10.47
2023-02-19T02:48:38.423Z,10.57
2023-02-19T02:51:23.264Z,10.51
2023-02-19T02:53:55.008Z,10.47
2023-02-19T02:56:24.684Z,10.50
2023-02-19T02:58:52.633Z,10.55
2023-02-19T03:01:32.789Z,10.62
2023-02-19T03:04:05.671Z,10.66
2023-02-19T03:06:35.067Z,10.65
2023-02-19T03:09:21.087Z,10.52
2023-02-19T03:11:50.540Z,10.36
2023-02-19T03:14:22.712Z,10.36
2023-02-19T03:16:51.773Z,10.19
2023-02-19T03:19:20.254Z,10.61
2023-02-19T03:22:14.254Z,10.84
2023-02-19T03:24:59.263Z,10.65
2023-02-19T03:27:29.451Z,10.58
2023-02-19T03:30:01.681Z,10.90
2023-02-19T03:32:35.912Z,10.88
2023-02-19T03:35:19.200Z,10.80
2023-02-19T03:37:54.356Z,10.68
2023-02-19T03:40:26.052Z,10.39
2023-02-19T03:43:04.767Z,10.45
2023-02-19T03:45:38.965Z,10.40
2023-02-19T03:48:22.823Z,10.29
2023-02-19T03:51:02.901Z,10.31
2023-02-19T03:53:48.401Z,10.32
2023-02-19T03:56:24.891Z,10.45
2023-02-19T03:58:56.232Z,10.26
2023-02-19T04:01:30.552Z,10.69
2023-02-19T04:04:09.121Z,10.66
2023-02-19T04:06:38.884Z,10.62
2023-02-19T04:09:09.591Z,11.03
2023-02-19T04:11:37.577Z,11.02
2023-02-19T04:14:37.105Z,10.66
2023-02-19T04:17:07.708Z,10.75
2023-02-19T04:19:37.986Z,10.49
2023-02-19T04:22:06.554Z,10.59
2023-02-19T04:24:38.739Z,10.81
2023-02-19T04:27:06.373Z,11.02
2023-02-19T04:29:32.915Z,10.58
2023-02-19T04:31:59.783Z,10.74
2023-02-19T04:34:26.172Z,10.81
2023-02-19T04:36:52.817Z,10.81
2023-02-19T04:39:19.575Z,10.65
2023-02-19T04:41:45.852Z,10.33
2023-02-19T04:44:12.230Z,10.33
2023-02-19T04:46:42.730Z,10.62
2023-02-19T04:49:09.480Z,10.45
2023-02-19T04:51:35.758Z,10.52
2023-02-19T04:54:02.228Z,10.39
2023-02-19T04:56:28.538Z,10.29
2023-02-19T04:58:55.609Z,10.19
2023-02-19T05:01:21.998Z,9.99
2023-02-19T05:03:48.300Z,10.19
2023-02-19T05:06:15.035Z,10.02
2023-02-19T05:08:41.717Z,9.79
2023-02-19T05:11:10.375Z,9.79
2023-02-19T05:13:37.074Z,9.75
2023-02-19T05:16:10.952Z,9.70
2023-02-19T05:18:37.293Z,9.60
2023-02-19T05:21:03.655Z,10.19
2023-02-19T05:23:30.107Z,10.08
2023-02-19T05:25:56.695Z,9.88
2023-02-19T05:28:23.308Z,9.85
2023-02-19T05:30:52.382Z,9.78
2023-02-19T05:33:20.740Z,9.62
2023-02-19T05:35:50.589Z,9.70
2023-02-19T05:38:18.215Z,9.78
2023-02-19T05:40:45.414Z,9.80
2023-02-19T05:43:13.079Z,9.77
2023-02-19T05:45:40.496Z,9.61
2023-02-19T05:48:07.921Z,9.49
2023-02-19T05:50:37.289Z,9.43
2023-02-19T05:53:05.683Z,9.48
2023-02-19T05:55:35.392Z,9.44
2023-02-19T05:58:02.034Z,9.30
2023-02-19T06:00:28.456Z,9.46
2023-02-19T06:02:54.920Z,9.80
2023-02-19T06:05:21.731Z,9.56
2023-02-19T06:07:48.145Z,9.40
2023-02-19T06:10:14.480Z,9.34
2023-02-19T06:12:40.914Z,9.22
2023-02-19T06:15:07.515Z,9.14
2023-02-19T06:17:34.690Z,9.25
2023-02-19T06:20:01.673Z,9.19
2023-02-19T06:22:28.263Z,9.16
2023-02-19T06:24:54.697Z,9.45
2023-02-19T06:27:21.121Z,9.56
2023-02-19T06:29:47.532Z,9.42
2023-02-19T06:32:13.968Z,9.38
2023-02-19T06:34:40.487Z,9.32
2023-02-19T06:37:06.792Z,9.30
2023-02-19T06:39:33.186Z,9.45
2023-02-19T06:41:59.491Z,9.38
2023-02-19T06:44:26.140Z,9.39
2023-02-19T06:46:55.509Z,9.36
2023-02-19T06:49:21.941Z,9.66
2023-02-19T06:51:48.393Z,9.72
2023-02-19T06:54:14.681Z,9.46
2023-02-19T06:56:41.925Z,9.61
2023-02-19T06:59:12.248Z,9.57
2023-02-19T07:01:39.712Z,9.79
2023-02-19T07:04:07.128Z,9.85
2023-02-19T07:06:34.848Z,9.85
2023-02-19T07:09:05.030Z,9.98
2023-02-19T07:11:33.473Z,9.79
2023-02-19T07:14:01.851Z,9.77
2023-02-19T07:16:28.921Z,9.75
2023-02-19T07:19:00.021Z,9.68
2023-02-19T07:21:29.156Z,9.66
2023-02-19T07:23:56.222Z,9.77
2023-02-19T07:26:23.457Z,10.10
2023-02-19T07:28:51.398Z,10.07
2023-02-19T07:31:20.238Z,10.07
2023-02-19T07:33:47.361Z,10.05
2023-02-19T07:36:14.747Z,10.24
2023-02-19T07:38:41.117Z,10.03
2023-02-19T07:41:07.825Z,10.20
2023-02-19T07:43:36.229Z,10.03
2023-02-19T07:46:04.282Z,9.98
2023-02-19T07:48:30.668Z,10.11
2023-02-19T07:50:59.814Z,10.23
2023-02-19T07:53:27.694Z,9.96
2023-02-19T07:55:58.815Z,9.86
2023-02-19T07:58:25.316Z,9.77
2023-02-19T08:00:51.675Z,9.96
2023-02-19T08:03:18.153Z,9.96
2023-02-19T08:05:44.594Z,9.73
2023-02-19T08:08:13.575Z,9.77
2023-02-19T08:10:40.292Z,10.18
2023-02-19T08:13:06.749Z,10.27
2023-02-19T08:15:33.191Z,10.19
2023-02-19T08:17:59.512Z,10.09
2023-02-19T08:20:25.866Z,10.09
2023-02-19T08:22:52.268Z,10.13
2023-02-19T08:25:18.617Z,10.05
2023-02-19T08:27:45.064Z,10.24
2023-02-19T08:30:11.777Z,10.68
2023-02-19T08:32:38.081Z,10.64
2023-02-19T08:35:04.989Z,10.31
2023-02-19T08:37:31.368Z,10.32
2023-02-19T08:39:57.693Z,10.60
2023-02-19T08:42:24.047Z,10.46
2023-02-19T08:44:50.406Z,10.59
2023-02-19T08:47:16.947Z,10.52
2023-02-19T08:49:43.329Z,10.61
2023-02-19T08:52:09.745Z,10.51
2023-02-19T08:54:37.264Z,10.53
2023-02-19T08:57:03.792Z,11.10
2023-02-19T08:59:30.288Z,10.80
2023-02-19T09:01:58.942Z,10.65
2023-02-19T09:04:25.246Z,10.88
2023-02-19T09:06:51.658Z,11.28
2023-02-19T09:09:18.014Z,11.49
2023-02-19T09:11:44.350Z,12.81
2023-02-19T09:14:10.884Z,12.90
2023-02-19T09:16:37.421Z,12.71
2023-02-19T09:19:04.535Z,12.18
2023-02-19T09:21:31.341Z,11.82
2023-02-19T09:23:57.974Z,12.12
2023-02-19T09:26:24.370Z,11.77
2023-02-19T09:28:50.868Z,11.73
2023-02-19T09:31:17.754Z,11.52
2023-02-19T09:33:45.897Z,11.28
2023-02-19T09:36:13.718Z,11.08
2023-02-19T09:38:40.396Z,11.11
2023-02-19T09:41:13.510Z,11.04
2023-02-19T09:43:40.130Z,11.01
2023-02-19T09:46:22.441Z,10.90
2023-02-19T09:48:49.250Z,10.91
2023-02-19T09:51:17.086Z,10.92
2023-02-19T09:53:50.835Z,10.95
2023-02-19T09:56:18.221Z,11.11
2023-02-19T09:58:50.798Z,11.15
2023-02-19T10:01:18.447Z,11.27
2023-02-19T10:03:47.853Z,11.46
2023-02-19T10:06:25.793Z,11.22
2023-02-19T10:09:11.004Z,11.38
2023-02-19T10:11:37.450Z,11.31
2023-02-19T10:14:27.369Z,11.26
2023-02-19T10:16:53.740Z,10.99
2023-02-19T10:19:20.088Z,10.78
2023-02-19T10:21:46.682Z,10.84
2023-02-19T10:24:24.328Z,10.45
2023-02-19T10:26:50.823Z,10.16
2023-02-19T10:29:17.344Z,9.93
2023-02-19T10:31:43.703Z,9.98
2023-02-19T10:34:18.473Z,10.14
2023-02-19T10:36:48.522Z,10.01
2023-02-19T10:39:49.713Z,9.99
2023-02-19T10:42:21.999Z,9.95
2023-02-19T10:44:55.273Z,9.90
2023-02-19T10:47:24.204Z,9.73
2023-02-19T10:49:52.550Z,9.75
2023-02-19T10:52:26.171Z,9.75
2023-02-19T10:54:59.084Z,9.68
2023-02-19T10:57:30.300Z,9.74
2023-02-19T11:00:03.367Z,9.71
2023-02-19T11:02:31.337Z,9.79
2023-02-19T11:05:09.869Z,9.78
2023-02-19T11:07:38.601Z,9.78
2023-02-19T11:10:06.467Z,9.69
2023-02-19T11:12:34.998Z,9.56
2023-02-19T11:15:20.449Z,9.67
2023-02-19T11:17:55.337Z,9.60
2023-02-19T11:20:21.860Z,9.58
2023-02-19T11:22:48.923Z,9.67
2023-02-19T11:25:15.191Z,9.81
2023-02-19T11:28:16.850Z,9.70
2023-02-19T11:30:44.982Z,9.64
2023-02-19T11:33:17.140Z,9.53
2023-02-19T11:35:44.009Z,9.35
2023-02-19T11:38:12.057Z,9.33
2023-02-19T11:40:45.331Z,9.36
2023-02-19T11:43:39.625Z,9.27
2023-02-19T11:46:09.273Z,9.39
2023-02-19T11:48:49.359Z,9.44
2023-02-19T11:51:38.349Z,9.45
2023-02-19T11:54:17.040Z,9.51
2023-02-19T11:56:43.761Z,9.57
2023-02-19T11:59:36.574Z,9.58
2023-02-19T12:02:31.473Z,9.55
2023-02-19T12:05:13.291Z,9.56
2023-02-19T12:08:23.188Z,9.85
2023-02-19T12:11:16.328Z,9.67
2023-02-19T12:14:03.616Z,9.66
2023-02-19T12:17:01.763Z,9.72
2023-02-19T12:19:43.581Z,9.72
2023-02-19T12:22:30.030Z,9.71
2023-02-19T12:25:05.737Z,9.85
2023-02-19T12:27:57.696Z,10.05
2023-02-19T12:30:36.140Z,10.21
2023-02-19T12:33:15.104Z,10.23
2023-02-19T12:36:03.041Z,10.25
2023-02-19T12:38:32.188Z,10.45
2023-02-19T12:41:13.283Z,10.42
2023-02-19T12:43:57.842Z,10.54
2023-02-19T12:46:36.650Z,10.57
2023-02-19T12:49:13.598Z,10.58
2023-02-19T12:52:02.946Z,10.65
2023-02-19T12:54:35.006Z,10.57
2023-02-19T12:57:06.039Z,10.75
2023-02-19T12:59:55.736Z,10.59
2023-02-19T13:02:28.264Z,10.53
2023-02-19T13:05:02.950Z,10.59
2023-02-19T13:07:41.158Z,10.51
2023-02-19T13:10:16.590Z,10.58
2023-02-19T13:12:44.087Z,10.62
2023-02-19T13:15:18.622Z,10.53
2023-02-19T13:17:52.166Z,10.39
2023-02-19T13:20:32.192Z,10.46
2023-02-19T13:23:24.069Z,10.51
2023-02-19T13:26:28.217Z,10.54
2023-02-19T13:29:14.948Z,10.55
2023-02-19T13:32:21.923Z,10.68
2023-02-19T13:34:48.123Z,10.91
2023-02-19T13:37:16.723Z,11.56
2023-02-19T13:39:51.820Z,11.90
2023-02-19T13:42:51.306Z,11.80
2023-02-19T13:45:22.742Z,11.67
2023-02-19T13:47:58.313Z,11.50
2023-02-19T13:50:28.494Z,11.19
2023-02-19T13:52:59.515Z,10.92
2023-02-19T13:55:43.970Z,10.71
2023-02-19T13:58:32.410Z,10.81
2023-02-19T14:01:01.291Z,10.57
2023-02-19T14:03:39.188Z,10.42
2023-02-19T14:06:08.489Z,10.27
2023-02-19T14:08:54.984Z,10.11
2023-02-19T14:11:43.529Z,10.06
2023-02-19T14:14:28.605Z,9.97
2023-02-19T14:17:05.995Z,9.99
2023-02-19T14:19:41.213Z,9.94
2023-02-19T14:22:44.853Z,9.88
2023-02-19T14:25:35.585Z,9.84
2023-02-19T14:28:10.860Z,9.87
2023-02-19T14:30:59.003Z,9.86
2023-02-19T14:33:28.659Z,9.95
2023-02-19T14:36:03.114Z,9.93
2023-02-19T14:39:01.690Z,10.09
2023-02-19T14:41:32.538Z,9.92
2023-02-19T14:44:02.029Z,9.97
2023-02-19T14:46:37.225Z,9.89
2023-02-19T14:49:25.368Z,9.93
2023-02-19T14:51:56.858Z,10.00
2023-02-19T14:54:39.374Z,9.97
2023-02-19T14:57:14.344Z,9.88
2023-02-19T14:59:40.942Z,9.78
2023-02-19T15:02:17.369Z,9.76
2023-02-19T15:04:43.878Z,9.86
2023-02-19T15:07:17.293Z,9.82
2023-02-19T15:09:48.545Z,9.73
2023-02-19T15:12:22.357Z,9.66
2023-02-19T15:14:51.068Z,9.66
2023-02-19T15:17:27.835Z,9.72
2023-02-19T15:19:56.686Z,9.65
2023-02-19T15:22:25.737Z,9.69
2023-02-19T15:24:52.133Z,9.61
2023-02-19T15:27:21.126Z,9.54
2023-02-19T15:29:51.330Z,9.48
2023-02-19T15:32:21.793Z,9.49
2023-02-19T15:35:03.352Z,9.49
2023-02-19T15:37:32.439Z,9.43
2023-02-19T15:40:05.962Z,9.37
2023-02-19T15:42:34.890Z,9.33
2023-02-19T15:45:17.113Z,9.34
2023-02-19T15:48:08.032Z,9.35
2023-02-19T15:50:37.278Z,9.34
2023-02-19T15:53:12.964Z,9.31
2023-02-19T15:55:41.559Z,9.14
2023-02-19T15:58:07.854Z,9.17
2023-02-19T16:00:45.425Z,9.08
2023-02-19T16:03:23.176Z,9.02
2023-02-19T16:06:00.126Z,9.03
2023-02-19T16:08:38.768Z,8.95
2023-02-19T16:11:24.623Z,9.00
2023-02-19T16:13:51.607Z,9.00
2023-02-19T16:16:27.611Z,8.92
2023-02-19T16:18:54.098Z,8.87
2023-02-19T16:21:24.394Z,8.89
2023-02-19T16:23:56.119Z,8.91
2023-02-19T16:26:22.879Z,8.83
2023-02-19T16:28:53.391Z,8.80
2023-02-19T16:31:22.455Z,8.82
2023-02-19T16:33:50.611Z,8.85
2023-02-19T16:36:18.672Z,8.87
2023-02-19T16:39:06.815Z,8.82
2023-02-19T16:41:34.364Z,8.74
2023-02-19T16:44:00.772Z,8.70
2023-02-19T16:46:27.143Z,8.69
2023-02-19T16:48:54.285Z,8.68
2023-02-19T16:51:27.597Z,8.67
2023-02-19T16:53:53.910Z,8.66
2023-02-19T16:56:20.820Z,8.65
2023-02-19T16:58:47.272Z,8.64
2023-02-19T17:01:14.127Z,8.66
2023-02-19T17:03:40.757Z,8.64
2023-02-19T17:06:07.503Z,8.66
2023-02-19T17:08:42.185Z,8.63
2023-02-19T17:11:14.553Z,8.64
2023-02-19T17:13:42.068Z,8.63
2023-02-19T17:16:16.669Z,8.60
2023-02-19T17:18:43.021Z,8.55
2023-02-19T17:21:27.172Z,8.59
2023-02-19T17:23:54.077Z,8.53
2023-02-19T17:26:26.584Z,8.59
2023-02-19T17:28:53.165Z,8.53
2023-02-19T17:31:19.922Z,8.55
2023-02-19T17:33:46.280Z,8.48
2023-02-19T17:36:27.556Z,8.53
2023-02-19T17:38:54.596Z,8.49
2023-02-19T17:41:20.886Z,8.41
2023-02-19T17:43:47.380Z,8.41
2023-02-19T17:46:31.627Z,8.38
2023-02-19T17:48:58.064Z,8.37
2023-02-19T17:51:24.334Z,8.35
2023-02-19T17:53:50.952Z,8.29
2023-02-19T17:56:24.383Z,8.41
2023-02-19T17:58:51.055Z,8.38
2023-02-19T18:01:17.530Z,8.20
2023-02-19T18:03:44.058Z,8.33
2023-02-19T18:06:10.359Z,8.33
2023-02-19T18:08:37.369Z,8.37
2023-02-19T18:11:04.836Z,8.36
2023-02-19T18:13:31.455Z,8.28
2023-02-19T18:15:58.074Z,8.22
2023-02-19T18:18:24.374Z,8.24
2023-02-19T18:20:50.738Z,8.23
2023-02-19T18:23:17.230Z,8.29
2023-02-19T18:25:43.552Z,8.30
2023-02-19T18:28:09.910Z,8.42
2023-02-19T18:30:36.407Z,8.57
2023-02-19T18:33:02.829Z,8.54
2023-02-19T18:35:29.210Z,8.38
2023-02-19T18:37:55.646Z,8.31
2023-02-19T18:40:23.521Z,8.29
2023-02-19T18:42:49.816Z,8.25
2023-02-19T18:45:16.732Z,8.29
2023-02-19T18:47:46.153Z,8.38
2023-02-19T18:50:13.129Z,8.39
2023-02-19T18:52:39.655Z,8.39
2023-02-19T18:55:07.069Z,8.38
2023-02-19T18:57:33.379Z,8.41
2023-02-19T18:59:59.773Z,8.46
2023-02-19T19:02:27.117Z,8.38
2023-02-19T19:04:54.695Z,8.42
2023-02-19T19:07:21.520Z,8.39
2023-02-19T19:09:48.061Z,8.43
2023-02-19T19:12:15.381Z,8.37
2023-02-19T19:14:41.756Z,8.28
2023-02-19T19:17:08.601Z,8.27
2023-02-19T19:19:34.899Z,8.24
2023-02-19T19:22:01.286Z,8.24
2023-02-19T19:24:27.751Z,8.22
2023-02-19T19:26:54.284Z,8.19
2023-02-19T19:29:21.987Z,8.19
2023-02-19T19:31:48.988Z,8.17
2023-02-19T19:34:15.809Z,8.15
2023-02-19T19:36:42.108Z,8.11
2023-02-19T19:39:08.520Z,8.08
2023-02-19T19:41:35.015Z,8.13
2023-02-19T19:44:08.758Z,8.19
2023-02-19T19:46:35.160Z,8.16
2023-02-19T19:49:01.673Z,8.17
2023-02-19T19:51:32.440Z,8.19
2023-02-19T19:53:58.734Z,8.23
2023-02-19T19:56:25.873Z,8.28
2023-02-19T19:58:52.207Z,8.27
2023-02-19T20:01:18.673Z,8.32
2023-02-19T20:03:45.051Z,8.30
2023-02-19T20:06:11.460Z,8.28
2023-02-19T20:08:38.020Z,8.01
2023-02-19T20:11:04.580Z,8.04
2023-02-19T20:13:30.994Z,8.08
2023-02-19T20:15:57.311Z,8.06
2023-02-19T20:18:23.598Z,8.08
2023-02-19T20:20:49.963Z,8.02
2023-02-19T20:23:16.396Z,8.01
2023-02-19T20:25:42.728Z,8.06
2023-02-19T20:28:09.063Z,8.06
2023-02-19T20:30:38.020Z,8.03
2023-02-19T20:33:04.570Z,8.05
2023-02-19T20:35:30.899Z,8.03
2023-02-19T20:37:57.172Z,8.09
2023-02-19T20:40:23.605Z,8.05
2023-02-19T20:42:50.033Z,8.07
2023-02-19T20:45:16.396Z,8.07
2023-02-19T20:47:42.794Z,8.07
2023-02-19T20:50:10.541Z,8.09
2023-02-19T20:52:36.919Z,8.13
2023-02-19T20:55:03.912Z,8.10
2023-02-19T20:57:30.259Z,8.16
2023-02-19T20:59:56.531Z,8.17
2023-02-19T21:02:25.876Z,8.17
2023-02-19T21:04:52.161Z,8.11
2023-02-19T21:07:18.670Z,8.19
2023-02-19T21:09:45.082Z,8.17
2023-02-19T21:12:11.572Z,8.16
2023-02-19T21:14:38.051Z,8.18
2023-02-19T21:17:04.504Z,8.18
2023-02-19T21:19:30.889Z,8.32
2023-02-19T21:21:57.493Z,8.36
2023-02-19T21:24:24.108Z,8.37
2023-02-19T21:26:50.461Z,8.27
2023-02-19T21:29:19.612Z,8.26
2023-02-19T21:31:48.457Z,8.30
2023-02-19T21:34:17.741Z,8.55
2023-02-19T21:36:45.348Z,8.54
2023-02-19T21:39:13.695Z,8.55
2023-02-19T21:41:40.117Z,8.44
2023-02-19T21:44:06.543Z,8.38
2023-02-19T21:46:32.847Z,8.42
2023-02-19T21:48:59.403Z,8.51
2023-02-19T21:51:38.416Z,8.43
2023-02-19T21:54:06.397Z,8.54
2023-02-19T21:56:36.110Z,8.60
2023-02-19T21:59:02.890Z,8.78
2023-02-19T22:01:34.162Z,8.78
2023-02-19T22:04:00.856Z,8.66
2023-02-19T22:06:29.968Z,8.71
2023-02-19T22:08:56.450Z,8.73
2023-02-19T22:11:22.817Z,8.72
2023-02-19T22:13:49.525Z,8.63
2023-02-19T22:16:16.375Z,8.61
2023-02-19T22:18:50.815Z,8.60
2023-02-19T22:21:17.795Z,8.62
2023-02-19T22:23:45.852Z,8.50
2023-02-19T22:26:26.357Z,8.43
2023-02-19T22:28:52.786Z,8.44
2023-02-19T22:31:21.446Z,8.42
2023-02-19T22:33:47.796Z,8.53
2023-02-19T22:36:25.990Z,8.50
2023-02-19T22:38:52.825Z,8.46
2023-02-19T22:41:20.490Z,8.41
2023-02-19T22:43:47.288Z,8.48
2023-02-19T22:46:17.459Z,8.64
2023-02-19T22:48:43.900Z,8.69
2023-02-19T22:51:12.025Z,8.70
2023-02-19T22:53:44.080Z,8.80
2023-02-19T22:56:11.181Z,8.71
2023-02-19T22:58:38.380Z,8.70
2023-02-19T23:01:05.108Z,8.62
2023-02-19T23:03:31.678Z,8.47
2023-02-19T23:05:58.054Z,8.61
2023-02-19T23:08:24.359Z,8.40
2023-02-19T23:10:50.777Z,8.51
2023-02-19T23:13:17.316Z,8.46
2023-02-19T23:15:43.639Z,8.54
2023-02-19T23:18:10.077Z,8.44
2023-02-19T23:20:36.427Z,8.41
2023-02-19T23:23:02.715Z,8.35
2023-02-19T23:25:29.219Z,8.35
2023-02-19T23:27:55.497Z,8.49
2023-02-19T23:30:21.962Z,8.55
2023-02-19T23:32:48.273Z,8.58
2023-02-19T23:35:14.692Z,8.44
2023-02-19T23:37:41.090Z,8.56
2023-02-19T23:40:07.863Z,8.51
2023-02-19T23:42:34.143Z,8.37
2023-02-19T23:45:00.610Z,8.49
2023-02-19T23:47:27.018Z,8.39
2023-02-19T23:49:53.431Z,8.47
2023-02-19T23:52:19.860Z,8.90
2023-02-19T23:54:46.174Z,8.91
2023-02-19T23:57:12.857Z,9.06
2023-02-19T23:59:39.176Z,9.12
